createdAt,value
2017-12-31T00:00:10.065Z,1.90
2017-12-31T00:02:46.110Z,2.00
2017-12-31T00:05:13.917Z,1.17
2017-12-31T00:07:43.532Z,1.40
2017-12-31T00:10:14.511Z,1.10
2017-12-31T00:12:44.911Z,1.00
2017-12-31T00:15:15.644Z,1.20
2017-12-31T00:17:45.530Z,0.83
2017-12-31T00:20:13.084Z,1.53
2017-12-31T00:22:44.354Z,1.03
2017-12-31T00:25:14.967Z,0.70
2017-12-31T00:27:44.184Z,0.73
2017-12-31T00:30:15.431Z,0.83
2017-12-31T00:32:45.343Z,0.90
2017-12-31T00:35:14.076Z,0.73
2017-12-31T00:37:41.718Z,1.00
2017-12-31T00:40:09.805Z,0.60
2017-12-31T00:42:38.324Z,0.73
2017-12-31T00:45:07.514Z,1.53
2017-12-31T00:47:37.492Z,0.70
2017-12-31T00:50:06.248Z,0.80
2017-12-31T00:52:35.014Z,0.80
2017-12-31T00:55:04.984Z,0.90
2017-12-31T00:57:35.449Z,0.80
2017-12-31T01:00:05.977Z,1.33
2017-12-31T01:02:34.566Z,1.63
2017-12-31T01:05:03.857Z,1.00
2017-12-31T01:07:31.535Z,1.70
2017-12-31T01:10:00.667Z,0.90
2017-12-31T01:12:29.703Z,1.47
2017-12-31T01:14:59.117Z,1.20
2017-12-31T12:53:47.236Z,21.03
2017-12-31T12:56:17.762Z,5.30
2017-12-31T12:58:46.789Z,24.00
2017-12-31T13:01:15.802Z,15.43
2017-12-31T13:03:45.066Z,76.40
2017-12-31T13:06:13.891Z,15.40
2017-12-31T13:08:42.543Z,30.90
2017-12-31T13:11:12.850Z,14.30
2017-12-31T13:13:40.953Z,36.30
2017-12-31T13:16:11.882Z,17.07
2017-12-31T13:18:40.417Z,29.60
2017-12-31T13:21:09.644Z,12.30
2017-12-31T13:23:39.505Z,22.90
2017-12-31T13:26:08.102Z,11.73
2017-12-31T13:28:37.459Z,19.80
2017-12-31T13:31:05.068Z,21.10
2017-12-31T13:33:33.126Z,15.87
2017-12-31T13:36:01.899Z,16.10
2017-12-31T13:38:33.769Z,23.00
2017-12-31T13:41:05.207Z,7.17
2017-12-31T13:43:34.368Z,10.00
2017-12-31T13:46:04.630Z,3.33
2017-12-31T13:48:34.136Z,16.00
2017-12-31T13:51:05.062Z,8.53
2017-12-31T13:53:33.638Z,4.80
2017-12-31T13:56:03.107Z,1.47
2017-12-31T13:58:32.024Z,1.60
2017-12-31T14:01:00.606Z,7.77
2017-12-31T14:03:28.318Z,7.87
2017-12-31T14:05:56.134Z,45.73
2017-12-31T14:08:25.031Z,15.40
2017-12-31T14:10:53.097Z,1.43
2017-12-31T14:13:22.649Z,1.17
2017-12-31T14:15:51.229Z,3.40
2017-12-31T14:18:19.228Z,3.03
2017-12-31T14:20:47.608Z,1.80
2017-12-31T14:23:17.480Z,1.03
2017-12-31T14:25:46.420Z,2.83
2017-12-31T14:28:15.384Z,6.37
2017-12-31T14:30:43.454Z,12.97
2017-12-31T14:33:12.981Z,4.93
2017-12-31T14:38:17.576Z,3.37
2017-12-31T14:40:45.595Z,3.43
2017-12-31T14:43:14.428Z,2.90
2017-12-31T14:45:44.152Z,4.90
2017-12-31T14:48:12.411Z,1.97
2017-12-31T14:50:40.889Z,1.73
2017-12-31T14:53:08.727Z,2.60
2017-12-31T14:55:39.122Z,1.83
2017-12-31T14:58:08.050Z,3.53
2017-12-31T15:00:36.432Z,2.83
2017-12-31T15:03:04.075Z,3.47
2017-12-31T15:05:35.889Z,3.70
2017-12-31T15:08:03.503Z,3.53
2017-12-31T15:10:32.426Z,3.13
2017-12-31T15:13:01.925Z,3.03
2017-12-31T15:15:30.118Z,3.60
2017-12-31T15:17:58.365Z,3.70
2017-12-31T15:20:26.571Z,3.33
2017-12-31T15:22:55.475Z,3.20
2017-12-31T15:25:24.085Z,3.33
2017-12-31T15:27:54.409Z,3.67
2017-12-31T15:30:21.940Z,5.90
2017-12-31T15:32:50.466Z,28.00
2017-12-31T15:35:18.796Z,36.73
2017-12-31T15:37:47.592Z,26.90
2017-12-31T15:40:15.510Z,21.30
2017-12-31T15:42:43.418Z,22.53
2017-12-31T15:45:11.907Z,24.10
2017-12-31T15:47:39.966Z,23.27
2017-12-31T15:50:08.906Z,16.30
2017-12-31T15:52:36.849Z,14.33
2017-12-31T15:55:05.572Z,9.53
2017-12-31T15:57:34.725Z,9.73
2017-12-31T16:00:03.284Z,6.30
2017-12-31T16:02:31.975Z,7.57
2017-12-31T16:05:00.334Z,9.40
2017-12-31T16:07:27.950Z,9.50
2017-12-31T16:09:55.594Z,8.43
2017-12-31T16:12:23.224Z,5.60
2017-12-31T16:14:51.712Z,6.63
2017-12-31T16:17:19.822Z,6.30
2017-12-31T16:19:50.022Z,5.37
2017-12-31T16:22:18.312Z,5.10
2017-12-31T16:24:47.162Z,5.63
2017-12-31T16:27:18.597Z,4.53
2017-12-31T16:29:47.126Z,6.20
2017-12-31T16:32:40.649Z,6.93
2017-12-31T16:35:13.476Z,7.60
2017-12-31T16:37:41.166Z,6.97
2017-12-31T16:40:08.922Z,7.50
2017-12-31T16:42:37.138Z,6.73
2017-12-31T16:45:05.282Z,5.80
2017-12-31T16:47:33.278Z,6.30
2017-12-31T16:50:03.634Z,12.63
2017-12-31T16:52:32.041Z,16.43
2017-12-31T16:55:00.227Z,9.03
2017-12-31T16:57:29.173Z,8.10
2017-12-31T16:59:57.505Z,6.30
2017-12-31T17:02:25.995Z,6.43
2017-12-31T17:04:53.780Z,6.70
2017-12-31T17:07:22.348Z,8.18
2017-12-31T17:09:50.909Z,9.30
2017-12-31T17:12:20.983Z,19.08
2017-12-31T17:14:49.562Z,19.53
2017-12-31T17:17:18.584Z,18.62
2017-12-31T17:19:49.061Z,19.12
2017-12-31T17:22:18.488Z,23.77
2017-12-31T17:24:46.398Z,24.48
2017-12-31T17:27:14.760Z,31.55
2017-12-31T17:29:44.905Z,37.65
2017-12-31T17:32:15.758Z,39.47
2017-12-31T17:34:45.857Z,36.10
2017-12-31T17:37:15.113Z,19.02
2017-12-31T17:39:44.495Z,16.35
2017-12-31T17:42:12.013Z,12.88
2017-12-31T17:44:40.554Z,13.10
2017-12-31T17:47:20.149Z,13.57
2017-12-31T17:49:50.566Z,14.10
2017-12-31T17:52:18.856Z,20.70
2017-12-31T17:54:47.937Z,17.75
2017-12-31T17:57:17.200Z,21.65
2017-12-31T17:59:45.880Z,24.10
2017-12-31T18:02:13.833Z,33.15
2017-12-31T18:04:41.738Z,30.90
2017-12-31T18:07:10.574Z,31.42
2017-12-31T18:09:39.992Z,45.08
2017-12-31T18:12:10.834Z,56.90
2017-12-31T18:14:39.361Z,49.05
2017-12-31T18:17:08.023Z,40.22
2017-12-31T18:19:37.905Z,17.42
2017-12-31T18:22:05.773Z,17.33
2017-12-31T18:24:34.065Z,18.33
2017-12-31T18:27:03.436Z,22.75
2017-12-31T18:29:31.722Z,29.15
2017-12-31T18:32:01.718Z,30.58
2017-12-31T18:34:30.308Z,17.05
2017-12-31T18:36:58.550Z,33.22
2017-12-31T18:39:28.199Z,38.67
2017-12-31T18:41:57.466Z,45.60
2017-12-31T18:44:25.965Z,43.65
2017-12-31T18:46:55.227Z,30.88
2017-12-31T18:49:23.179Z,25.95
2017-12-31T18:51:55.124Z,22.92
2017-12-31T18:54:23.773Z,17.27
2017-12-31T18:56:52.835Z,18.25
2017-12-31T18:59:29.220Z,29.30
2017-12-31T19:01:57.358Z,31.50
2017-12-31T19:04:25.689Z,19.20
2017-12-31T19:06:54.622Z,19.52
2017-12-31T19:09:29.526Z,22.30
2017-12-31T19:11:59.113Z,50.95
2017-12-31T19:14:29.399Z,39.70
2017-12-31T19:16:58.709Z,40.42
2017-12-31T19:19:27.874Z,46.95
2017-12-31T19:21:56.015Z,43.00
2017-12-31T19:24:27.173Z,42.45
2017-12-31T19:26:56.875Z,40.95
2017-12-31T19:29:26.294Z,38.20
2017-12-31T19:31:54.640Z,39.35
2017-12-31T19:34:26.131Z,53.42
2017-12-31T19:36:58.679Z,51.05
2017-12-31T19:39:29.003Z,52.55
2017-12-31T19:42:00.290Z,44.37
2017-12-31T19:44:29.001Z,54.17
2017-12-31T19:46:57.930Z,79.55
2017-12-31T19:49:41.252Z,89.40
2017-12-31T19:52:14.175Z,81.57
2017-12-31T19:54:42.877Z,72.10
2017-12-31T19:57:16.007Z,63.70
2017-12-31T19:59:49.116Z,52.77
2017-12-31T20:02:26.016Z,75.31
2017-12-31T20:05:00.259Z,42.10
2017-12-31T20:07:29.397Z,41.58
2017-12-31T20:10:02.029Z,36.08
2017-12-31T20:12:30.866Z,45.28
2017-12-31T20:15:02.034Z,54.70
2017-12-31T20:17:30.483Z,50.53
2017-12-31T20:19:58.868Z,53.92
2017-12-31T20:22:40.599Z,52.92
2017-12-31T20:25:12.733Z,43.85
2017-12-31T20:32:38.507Z,37.60
2017-12-31T20:35:06.755Z,40.80
2017-12-31T20:37:38.674Z,30.70
2017-12-31T20:40:12.719Z,25.10
2017-12-31T20:42:42.313Z,26.98
2017-12-31T20:45:10.389Z,42.15
2017-12-31T20:47:39.852Z,33.17
2017-12-31T20:50:07.671Z,31.05
2017-12-31T20:52:38.014Z,30.65
2017-12-31T20:55:19.618Z,36.72
2017-12-31T20:57:49.437Z,39.72
2017-12-31T21:00:18.635Z,39.67
2017-12-31T21:02:47.684Z,38.40
2017-12-31T21:05:17.534Z,37.37
2017-12-31T21:07:49.293Z,35.70
2017-12-31T21:10:18.319Z,39.33
2017-12-31T21:12:48.642Z,39.55
2017-12-31T21:15:25.914Z,40.00
2017-12-31T21:17:55.750Z,47.62
2017-12-31T21:20:30.418Z,39.45
2017-12-31T21:22:59.100Z,41.30
2017-12-31T21:25:27.027Z,36.70
2017-12-31T21:27:56.043Z,33.60
2017-12-31T21:30:24.761Z,30.05
2017-12-31T21:32:52.813Z,38.28
2017-12-31T21:35:23.772Z,38.17
2017-12-31T21:37:53.052Z,21.90
2017-12-31T21:40:23.219Z,31.80
2017-12-31T21:42:52.304Z,39.92
2017-12-31T21:45:21.186Z,45.50
2017-12-31T21:47:50.023Z,48.70
2017-12-31T21:50:18.647Z,43.45
2017-12-31T21:52:46.138Z,40.15
2017-12-31T21:55:13.587Z,30.08
2017-12-31T21:57:41.022Z,18.85
2017-12-31T22:00:08.526Z,26.67
2017-12-31T22:02:36.010Z,24.73
2017-12-31T22:05:03.499Z,38.38
2017-12-31T22:07:33.048Z,30.42
2017-12-31T22:10:00.686Z,26.35
2017-12-31T22:12:30.692Z,21.98
2017-12-31T22:15:07.581Z,24.45
2017-12-31T22:17:41.828Z,47.47
2017-12-31T22:20:25.089Z,22.33
2017-12-31T22:22:55.158Z,20.52
2017-12-31T22:25:24.724Z,18.15
2017-12-31T22:27:59.104Z,16.83
2017-12-31T22:30:31.990Z,20.00
2017-12-31T22:35:35.143Z,27.45
2017-12-31T22:38:05.965Z,25.75
2017-12-31T22:40:34.500Z,26.85
2017-12-31T22:43:03.997Z,96.78
2017-12-31T22:45:32.487Z,89.62
2017-12-31T22:48:01.537Z,66.15
2017-12-31T22:50:36.328Z,85.85
2017-12-31T22:53:04.055Z,101.45
2017-12-31T22:55:31.682Z,112.40
2017-12-31T22:58:17.130Z,101.85
2017-12-31T23:00:48.851Z,97.70
2017-12-31T23:03:17.065Z,835.47
2017-12-31T23:05:52.684Z,778.72
2017-12-31T23:08:26.515Z,732.28
2017-12-31T23:10:54.068Z,851.10
2017-12-31T23:13:22.277Z,820.20
2017-12-31T23:15:49.929Z,999.90
2017-12-31T23:18:23.437Z,999.90
2017-12-31T23:20:54.649Z,997.40
2017-12-31T23:23:27.634Z,999.90
2017-12-31T23:25:59.152Z,981.10
2017-12-31T23:28:28.441Z,678.35
2017-12-31T23:30:56.817Z,461.98
2017-12-31T23:33:29.328Z,493.05
2017-12-31T23:36:10.415Z,496.33
2017-12-31T23:38:41.141Z,555.37
2017-12-31T23:41:12.574Z,804.43
2017-12-31T23:43:51.165Z,783.67
2017-12-31T23:46:20.890Z,602.70
2017-12-31T23:48:54.775Z,460.77
2017-12-31T23:51:25.882Z,405.55
2017-12-31T23:53:53.883Z,450.20
2017-12-31T23:56:21.906Z,486.40
2017-12-31T23:58:52.380Z,524.33
